createdAt,value
2023-03-23T16:00:13.187Z,3.55
2023-03-23T16:02:39.983Z,3.35
2023-03-23T16:05:06.967Z,3.00
2023-03-23T16:07:33.748Z,2.72
2023-03-23T16:10:00.230Z,2.70
2023-03-23T16:12:26.718Z,2.47
2023-03-23T16:14:53.634Z,2.15
2023-03-23T16:17:21.592Z,2.33
2023-03-23T16:19:48.226Z,2.00
2023-03-23T16:22:16.068Z,2.03
2023-03-23T16:24:43.677Z,2.65
2023-03-23T16:27:13.852Z,1.95
2023-03-23T16:30:02.349Z,1.90
2023-03-23T16:32:27.325Z,1.70
2023-03-23T16:34:53.863Z,1.98
2023-03-23T16:37:20.557Z,1.92
2023-03-23T16:39:47.212Z,1.90
2023-03-23T16:42:13.626Z,2.00
2023-03-23T16:44:40.752Z,1.70
2023-03-23T16:47:27.450Z,1.70
2023-03-23T16:49:54.349Z,1.98
2023-03-23T16:52:21.268Z,2.65
2023-03-23T16:54:47.714Z,2.60
2023-03-23T16:57:14.676Z,2.53
2023-03-23T16:59:41.249Z,6.07
2023-03-23T17:02:09.499Z,5.68
2023-03-23T17:04:36.268Z,5.53
2023-03-23T17:07:02.734Z,3.67
2023-03-23T17:09:29.252Z,6.22
2023-03-23T17:11:55.670Z,3.50
2023-03-23T17:14:22.074Z,3.63
2023-03-23T17:16:48.476Z,3.15
2023-03-23T17:19:15.029Z,3.15
2023-03-23T17:21:41.977Z,2.92
2023-03-23T17:24:08.663Z,3.25
2023-03-23T17:26:35.964Z,4.95
2023-03-23T17:29:03.923Z,4.70
2023-03-23T17:31:30.453Z,4.00
2023-03-23T17:33:57.736Z,3.63
2023-03-23T17:36:24.729Z,3.75
2023-03-23T17:38:51.211Z,4.00
2023-03-23T17:41:17.821Z,4.45
2023-03-23T17:43:44.389Z,4.38
2023-03-23T17:46:11.032Z,4.22
2023-03-23T17:48:37.715Z,3.95
2023-03-23T17:51:04.697Z,4.05
2023-03-23T17:53:32.452Z,3.88
2023-03-23T17:55:59.212Z,4.75
2023-03-23T17:58:26.910Z,3.85
2023-03-23T18:00:57.572Z,3.60
2023-03-23T18:03:25.816Z,3.85
2023-03-23T18:05:58.830Z,3.45
2023-03-23T18:08:26.332Z,3.38
2023-03-23T18:10:54.891Z,3.20
2023-03-23T18:13:21.850Z,3.58
2023-03-23T18:15:48.633Z,3.90
2023-03-23T18:18:15.917Z,3.65
2023-03-23T18:20:42.484Z,3.45
2023-03-23T18:23:08.888Z,3.63
2023-03-23T18:25:36.609Z,3.50
2023-03-23T18:28:04.736Z,3.67
2023-03-23T18:30:34.816Z,3.35
2023-03-23T18:33:01.603Z,3.60
2023-03-23T18:35:28.454Z,3.72
2023-03-23T18:37:54.981Z,3.33
2023-03-23T18:40:21.516Z,3.47
2023-03-23T18:42:48.970Z,3.45
2023-03-23T18:45:15.397Z,4.97
2023-03-23T18:47:42.041Z,7.82
2023-03-23T18:50:10.837Z,15.18
2023-03-23T18:52:37.495Z,53.67
2023-03-23T18:55:04.565Z,28.63
2023-03-23T18:57:30.954Z,10.57
2023-03-23T18:59:57.552Z,8.88
2023-03-23T19:02:23.992Z,4.43
2023-03-23T19:04:50.930Z,4.20
2023-03-23T19:07:19.704Z,4.70
2023-03-23T19:09:47.411Z,3.40
2023-03-23T19:12:15.866Z,3.60
2023-03-23T19:14:43.269Z,3.42
2023-03-23T19:17:10.785Z,3.05
2023-03-23T19:19:37.285Z,3.72
2023-03-23T19:22:05.648Z,2.80
2023-03-23T19:24:31.974Z,3.00
2023-03-23T19:26:59.947Z,3.08
2023-03-23T19:29:27.429Z,2.78
2023-03-23T19:31:55.970Z,2.63
2023-03-23T19:34:24.116Z,2.85
2023-03-23T19:36:56.257Z,3.08
2023-03-23T19:39:26.048Z,2.78
2023-03-23T19:41:52.706Z,2.70
2023-03-23T19:44:19.016Z,2.60
2023-03-23T19:46:45.654Z,2.50
2023-03-23T19:49:12.214Z,2.70
2023-03-23T19:51:39.722Z,2.50
2023-03-23T19:54:09.244Z,4.22
2023-03-23T19:56:36.220Z,2.67
2023-03-23T19:59:03.625Z,2.97
2023-03-23T20:01:31.146Z,3.30
2023-03-23T20:04:00.039Z,3.55
2023-03-23T20:06:29.220Z,3.10
2023-03-23T20:08:56.809Z,3.30
2023-03-23T20:11:23.647Z,3.13
2023-03-23T20:13:50.608Z,2.90
2023-03-23T20:16:18.091Z,3.50
2023-03-23T20:21:14.792Z,3.28
2023-03-23T20:23:42.842Z,2.80
2023-03-23T20:26:25.555Z,2.85
2023-03-23T20:28:52.369Z,3.50
2023-03-23T20:31:27.147Z,3.25
2023-03-23T20:34:01.957Z,2.67
2023-03-23T20:36:36.130Z,2.65
2023-03-23T20:39:10.388Z,3.17
2023-03-23T20:41:38.425Z,2.65
2023-03-23T20:44:07.069Z,2.80
2023-03-23T20:46:34.379Z,3.10
2023-03-23T20:49:01.112Z,2.63
2023-03-23T20:51:27.831Z,4.70
2023-03-23T20:53:54.688Z,2.75
2023-03-23T20:56:21.156Z,3.00
2023-03-23T21:01:14.335Z,2.70
2023-03-23T21:03:41.919Z,2.50
2023-03-23T21:06:09.069Z,2.50
2023-03-23T21:08:37.802Z,2.70
2023-03-23T21:11:07.122Z,2.50
2023-03-23T21:13:34.225Z,2.45
2023-03-23T21:16:04.359Z,2.15
2023-03-23T21:18:31.596Z,2.05
2023-03-23T21:20:59.023Z,3.15
2023-03-23T21:23:26.771Z,3.63
2023-03-23T21:25:54.872Z,2.45
2023-03-23T21:28:22.259Z,2.75
2023-03-23T21:30:51.148Z,2.50
2023-03-23T21:33:17.458Z,2.60
2023-03-23T21:35:43.828Z,2.60
2023-03-23T21:38:14.171Z,2.60
2023-03-23T21:40:42.044Z,2.80
2023-03-23T21:43:17.094Z,2.33
2023-03-23T21:45:45.543Z,2.00
2023-03-23T21:48:13.011Z,2.90
2023-03-23T21:50:44.609Z,2.17
2023-03-23T21:53:18.380Z,2.20
2023-03-23T21:55:51.040Z,2.42
2023-03-23T21:58:25.085Z,2.70
2023-03-23T22:00:54.096Z,2.50
2023-03-23T22:03:25.562Z,2.20
2023-03-23T22:05:56.728Z,2.47
2023-03-23T22:08:28.676Z,2.30
2023-03-23T22:11:03.081Z,2.47
2023-03-23T22:13:31.114Z,2.50
2023-03-23T22:16:01.796Z,2.63
2023-03-23T22:18:28.701Z,2.10
2023-03-23T22:20:55.403Z,2.15
2023-03-23T22:23:22.570Z,2.60
2023-03-23T22:25:49.146Z,2.63
2023-03-23T22:28:15.761Z,2.50
2023-03-23T22:30:42.090Z,2.70
2023-03-23T22:33:08.543Z,2.65
2023-03-23T22:35:35.007Z,2.60
2023-03-23T22:38:03.126Z,2.90
2023-03-23T22:40:31.397Z,2.88
2023-03-23T22:42:58.094Z,2.55
2023-03-23T22:45:26.197Z,2.17
2023-03-23T22:47:52.858Z,2.35
2023-03-23T22:50:21.451Z,3.33
2023-03-23T22:55:14.979Z,2.40
2023-03-23T22:57:41.379Z,2.65
2023-03-23T23:00:14.326Z,2.00
2023-03-23T23:02:44.129Z,1.92
2023-03-23T23:05:11.746Z,1.92
2023-03-23T23:07:38.647Z,2.22
2023-03-23T23:10:05.699Z,1.80
2023-03-23T23:12:35.139Z,2.10
2023-03-23T23:15:02.804Z,2.22
2023-03-23T23:17:31.770Z,2.00
2023-03-23T23:19:59.540Z,2.22
2023-03-23T23:22:26.453Z,2.10
2023-03-23T23:24:53.072Z,1.80
2023-03-23T23:27:19.829Z,1.70
2023-03-23T23:29:46.207Z,2.30
2023-03-23T23:32:13.008Z,1.95
2023-03-23T23:34:39.366Z,2.00
2023-03-23T23:37:08.881Z,2.45
2023-03-23T23:39:38.514Z,1.70
2023-03-23T23:42:05.799Z,2.30
2023-03-23T23:44:32.688Z,1.70
2023-03-23T23:46:59.323Z,1.92
2023-03-23T23:49:28.881Z,2.03
2023-03-23T23:51:56.486Z,1.92
2023-03-23T23:54:23.231Z,1.70
2023-03-23T23:56:50.825Z,1.95
2023-03-23T23:59:17.304Z,1.93
